Time;durP1;ratioP1;P1;durP2;ratioP2;P2;SDS_P1;SDS_P2;PMS_P1;PMS_P2;Temp;Humidity;BMP_temperature;BMP_pressure;BME280_temperature;BME280_humidity;BME280_pressure;Samples;Min_cycle;Max_cycle;Signal;HPM_P1;HPM_P2
2021/10/13 00:01:11;;;;;;;6.87;2.13;;;9.70;99.90;;;;;;5074198;28;38771;-79
2021/10/13 00:03:37;;;;;;;8.70;1.38;;;9.70;99.90;;;;;;5105654;28;39233;-79
2021/10/13 00:06:03;;;;;;;6.88;1.48;;;9.70;99.90;;;;;;5103005;28;38976;-79
2021/10/13 00:08:29;;;;;;;4.40;1.30;;;9.70;99.90;;;;;;5104843;28;39591;-78
2021/10/13 00:10:55;;;;;;;5.90;1.20;;;9.70;99.90;;;;;;5075252;28;37203;-79
2021/10/13 00:13:21;;;;;;;10.37;1.73;;;9.60;99.90;;;;;;5100155;28;38858;-79
2021/10/13 00:15:47;;;;;;;7.93;1.55;;;9.60;99.90;;;;;;5078545;28;37480;-79
2021/10/13 00:18:13;;;;;;;9.17;1.70;;;9.50;99.90;;;;;;5085347;28;38074;-78
2021/10/13 00:20:39;;;;;;;9.83;1.90;;;9.50;99.90;;;;;;5093432;28;37144;-79
2021/10/13 00:23:05;;;;;;;8.47;1.80;;;9.40;99.90;;;;;;5070719;28;37421;-78
2021/10/13 00:25:31;;;;;;;5.53;1.73;;;9.30;99.90;;;;;;5080842;28;37538;-79
2021/10/13 00:27:57;;;;;;;6.07;1.37;;;9.30;99.90;;;;;;5075691;28;35395;-79
2021/10/13 00:30:24;;;;;;;7.80;1.77;;;9.30;99.90;;;;;;5079606;28;36429;-78
2021/10/13 00:32:50;;;;;;;6.23;1.30;;;9.30;99.90;;;;;;5092534;28;39842;-78
2021/10/13 00:35:16;;;;;;;8.97;1.87;;;9.30;99.90;;;;;;5081493;28;40422;-79
2021/10/13 00:37:42;;;;;;;6.10;1.60;;;9.30;99.90;;;;;;5093722;28;38550;-78
2021/10/13 00:40:09;;;;;;;8.90;2.20;;;9.30;99.90;;;;;;5075203;28;37133;-78
2021/10/13 00:42:35;;;;;;;7.23;1.80;;;9.40;99.90;;;;;;5090684;28;39603;-79
2021/10/13 00:45:01;;;;;;;4.13;1.43;;;9.50;99.90;;;;;;5096785;28;39513;-78
2021/10/13 00:47:27;;;;;;;5.40;1.50;;;9.50;99.90;;;;;;5072353;28;47627;-78
2021/10/13 00:49:53;;;;;;;9.60;1.73;;;9.50;99.90;;;;;;5092514;28;37360;-78
2021/10/13 00:52:19;;;;;;;6.87;1.60;;;9.60;99.90;;;;;;5093793;28;39498;-79
2021/10/13 00:54:46;;;;;;;6.40;2.00;;;9.70;99.90;;;;;;5071758;28;38309;-79
2021/10/13 00:57:12;;;;;;;6.90;1.50;;;9.70;99.90;;;;;;5068910;28;39741;-79
2021/10/13 00:59:38;;;;;;;10.73;1.87;;;9.80;99.90;;;;;;5087403;28;36746;-79
2021/10/13 01:02:13;;;;;;;8.20;1.97;;;9.70;99.90;;;;;;5072457;28;37775;-78
2021/10/13 01:05:16;;;;;;;7.03;1.90;;;9.70;99.90;;;;;;5072260;28;39757;-78
2021/10/13 01:08:06;;;;;;;7.53;1.90;;;9.70;99.90;;;;;;5083630;28;48827;-79
2021/10/13 01:10:42;;;;;;;6.97;1.67;;;9.70;99.90;;;;;;5073573;28;47191;-78
2021/10/13 01:13:32;;;;;;;7.33;1.53;;;9.80;99.90;;;;;;5094018;28;38726;-78
2021/10/13 01:16:31;;;;;;;6.93;1.80;;;9.80;99.90;;;;;;5077174;28;39228;-79
2021/10/13 01:19:03;;;;;;;7.73;1.57;;;9.90;99.90;;;;;;5084393;28;47128;-79
2021/10/13 01:21:58;;;;;;;4.50;1.13;;;10.00;99.90;;;;;;5088293;28;47464;-79
2021/10/13 01:24:33;;;;;;;8.67;1.63;;;10.10;99.90;;;;;;5077022;28;38529;-78
2021/10/13 01:27:19;;;;;;;6.05;1.13;;;10.20;99.90;;;;;;5074190;28;37415;-79
2021/10/13 01:29:48;;;;;;;9.35;1.60;;;10.20;99.90;;;;;;5039424;28;47605;-79
2021/10/13 01:32:24;;;;;;;5.68;1.48;;;10.20;99.90;;;;;;5071882;28;36311;-79
2021/10/13 01:34:55;;;;;;;9.00;1.48;;;10.20;99.90;;;;;;5069107;28;39435;-79
2021/10/13 01:37:27;;;;;;;7.75;1.35;;;10.30;99.90;;;;;;5075565;28;39405;-78
2021/10/13 01:39:56;;;;;;;3.20;1.00;;;10.20;99.90;;;;;;5095490;28;39056;-78
2021/10/13 01:42:23;;;;;;;13.43;1.80;;;10.20;99.90;;;;;;5078194;28;37918;-79
2021/10/13 01:44:53;;;;;;;5.43;1.48;;;10.20;99.90;;;;;;5104303;28;39445;-78
2021/10/13 01:47:20;;;;;;;8.30;1.38;;;10.30;99.90;;;;;;5089034;28;39134;-78
2021/10/13 01:49:49;;;;;;;7.10;1.60;;;10.30;99.90;;;;;;5102548;28;38181;-78
2021/10/13 01:52:18;;;;;;;4.80;1.30;;;10.30;99.90;;;;;;5100799;28;37664;-79
2021/10/13 01:54:44;;;;;;;3.53;1.42;;;10.30;99.90;;;;;;5089287;28;39227;-78
2021/10/13 01:57:11;;;;;;;6.45;1.80;;;10.30;99.90;;;;;;5088212;28;38809;-79
2021/10/13 01:59:41;;;;;;;6.05;1.63;;;10.30;99.90;;;;;;5088271;28;37578;-78
2021/10/13 02:02:08;;;;;;;12.05;1.75;;;10.40;99.90;;;;;;5085329;28;37562;-78
2021/10/13 02:04:42;;;;;;;5.88;1.85;;;10.40;99.90;;;;;;5091536;28;38714;-78
2021/10/13 02:07:10;;;;;;;7.50;1.50;;;10.40;99.90;;;;;;5074205;28;40035;-78
2021/10/13 02:09:37;;;;;;;9.40;1.77;;;10.40;99.90;;;;;;5067299;28;38463;-79
2021/10/13 02:12:05;;;;;;;6.15;1.63;;;10.40;99.90;;;;;;5090738;28;37301;-79
2021/10/13 02:14:36;;;;;;;8.68;2.72;;;10.30;99.90;;;;;;5064950;28;39749;-78
2021/10/13 02:17:06;;;;;;;4.90;1.65;;;10.40;99.90;;;;;;5077965;28;39052;-78
2021/10/13 02:19:32;;;;;;;5.47;1.70;;;10.30;99.90;;;;;;5094928;28;37339;-79
2021/10/13 02:22:01;;;;;;;5.43;1.30;;;10.30;99.90;;;;;;5079712;28;38808;-78
2021/10/13 02:24:36;;;;;;;7.10;1.92;;;10.20;99.90;;;;;;5100911;28;41051;-78
2021/10/13 02:27:13;;;;;;;6.05;1.60;;;10.20;99.90;;;;;;5100255;28;38446;-79
2021/10/13 02:29:39;;;;;;;5.20;1.38;;;10.30;99.90;;;;;;5100677;28;48390;-78
2021/10/13 02:32:09;;;;;;;6.50;1.77;;;10.30;99.90;;;;;;5095570;28;37204;-78
2021/10/13 02:34:39;;;;;;;8.73;1.40;;;10.30;99.90;;;;;;5090010;28;39996;-78
2021/10/13 02:37:06;;;;;;;5.70;1.60;;;10.30;99.90;;;;;;5077960;28;38962;-79
2021/10/13 02:39:32;;;;;;;5.93;1.90;;;10.30;99.90;;;;;;5068861;28;39847;-78
2021/10/13 02:41:58;;;;;;;4.72;1.15;;;10.40;99.90;;;;;;5073372;28;37843;-78
2021/10/13 02:44:25;;;;;;;8.00;1.60;;;10.40;99.90;;;;;;5071807;28;40697;-79
2021/10/13 02:47:08;;;;;;;8.85;2.05;;;10.30;99.90;;;;;;5071122;28;39381;-78
2021/10/13 02:49:34;;;;;;;;;;;10.30;99.90;;;;;;5077210;28;47364;-79
2021/10/13 02:52:22;;;;;;;5.63;1.63;;;10.20;99.90;;;;;;5079648;28;36174;-79
2021/10/13 02:55:02;;;;;;;4.90;1.80;;;10.20;99.90;;;;;;5094005;28;47856;-78
2021/10/13 02:57:43;;;;;;;10.00;2.15;;;10.10;99.90;;;;;;5072063;28;47214;-78
2021/10/13 03:00:11;;;;;;;4.72;2.05;;;10.00;99.90;;;;;;5067746;28;38914;-78
2021/10/13 03:03:04;;;;;;;5.33;2.10;;;9.80;99.90;;;;;;5093280;28;37388;-78
2021/10/13 03:05:31;;;;;;;5.93;1.85;;;9.80;99.90;;;;;;5085376;28;47160;-78
2021/10/13 03:08:02;;;;;;;7.97;1.93;;;9.60;99.90;;;;;;5088787;28;38046;-78
2021/10/13 03:10:29;;;;;;;6.53;2.10;;;9.60;99.90;;;;;;5084431;28;48895;-78
2021/10/13 03:12:58;;;;;;;9.30;2.30;;;9.50;99.90;;;;;;5067395;28;37791;-79
2021/10/13 03:15:29;;;;;;;8.50;2.40;;;9.50;99.90;;;;;;5088446;28;39685;-79
2021/10/13 03:17:57;;;;;;;4.17;1.80;;;9.40;99.90;;;;;;5065552;28;39916;-78
2021/10/13 03:20:26;;;;;;;6.63;2.00;;;9.40;99.90;;;;;;5064783;28;38206;-78
2021/10/13 03:22:55;;;;;;;5.70;2.30;;;9.30;99.90;;;;;;5071245;28;39301;-78
2021/10/13 03:25:26;;;;;;;5.17;1.70;;;9.30;99.90;;;;;;5087168;28;38705;-78
2021/10/13 03:27:53;;;;;;;5.90;1.93;;;9.30;99.90;;;;;;5091725;28;39126;-78
2021/10/13 03:30:19;;;;;;;7.53;2.43;;;9.30;99.90;;;;;;5069111;28;40144;-78
2021/10/13 03:32:46;;;;;;;4.63;1.67;;;9.20;99.90;;;;;;5072948;28;37514;-78
2021/10/13 03:35:25;;;;;;;5.60;1.77;;;9.20;99.90;;;;;;5094196;28;38448;-78
2021/10/13 03:37:52;;;;;;;3.63;1.53;;;9.20;99.90;;;;;;5072694;28;38997;-78
2021/10/13 03:40:20;;;;;;;4.03;1.70;;;9.20;99.90;;;;;;5088341;28;39594;-78
2021/10/13 03:42:46;;;;;;;7.07;1.90;;;9.10;99.90;;;;;;5071997;28;37415;-79
2021/10/13 03:45:14;;;;;;;6.10;2.40;;;9.00;99.90;;;;;;5087171;28;39744;-78
2021/10/13 03:47:41;;;;;;;9.00;2.13;;;9.00;99.90;;;;;;5090822;28;39004;-78
2021/10/13 03:50:08;;;;;;;4.77;1.73;;;9.00;99.90;;;;;;5093234;28;38188;-78
2021/10/13 03:52:35;;;;;;;5.73;2.00;;;8.80;99.90;;;;;;5096450;28;36876;-78
2021/10/13 03:55:01;;;;;;;5.23;2.60;;;8.80;99.90;;;;;;5094219;28;39683;-78
2021/10/13 03:57:27;;;;;;;5.03;2.17;;;8.80;99.90;;;;;;5100052;27;47118;-78
2021/10/13 03:59:53;;;;;;;5.60;2.30;;;8.70;99.90;;;;;;5071823;28;40725;-78
2021/10/13 04:02:19;;;;;;;7.40;2.17;;;8.70;99.90;;;;;;5090118;28;37472;-78
2021/10/13 04:04:45;;;;;;;3.37;1.57;;;8.70;99.90;;;;;;5096886;28;38516;-78
2021/10/13 04:07:11;;;;;;;6.57;2.33;;;8.70;99.90;;;;;;5069443;28;37456;-78
2021/10/13 04:09:37;;;;;;;7.90;2.70;;;8.80;99.90;;;;;;5074504;28;39019;-76
2021/10/13 04:12:03;;;;;;;5.60;2.43;;;8.80;99.90;;;;;;5077316;28;36169;-77
2021/10/13 04:14:30;;;;;;;5.47;2.67;;;8.90;99.90;;;;;;5073194;28;39706;-77
2021/10/13 04:16:56;;;;;;;4.40;2.23;;;8.90;99.90;;;;;;5073184;28;38478;-77
2021/10/13 04:19:23;;;;;;;7.80;2.67;;;9.10;99.90;;;;;;5071843;28;38685;-77
2021/10/13 04:21:49;;;;;;;4.33;2.13;;;9.10;99.90;;;;;;5090935;28;37253;-77
2021/10/13 04:24:15;;;;;;;8.73;3.50;;;9.20;99.90;;;;;;5068487;28;40664;-77
2021/10/13 04:26:41;;;;;;;3.87;2.57;;;9.10;99.90;;;;;;5094092;28;38330;-77
2021/10/13 04:29:07;;;;;;;4.80;2.73;;;9.10;99.90;;;;;;5077957;28;39834;-78
2021/10/13 04:31:33;;;;;;;5.90;2.57;;;9.20;99.90;;;;;;5090718;28;36890;-78
2021/10/13 04:34:00;;;;;;;12.83;3.70;;;9.20;99.90;;;;;;5073869;28;38642;-78
2021/10/13 04:36:26;;;;;;;5.63;2.50;;;9.30;99.90;;;;;;5070482;28;39843;-78
2021/10/13 04:38:52;;;;;;;5.37;3.30;;;9.30;99.90;;;;;;5074680;28;40084;-78
2021/10/13 04:41:18;;;;;;;5.70;2.87;;;9.40;99.90;;;;;;5092427;28;37948;-79
2021/10/13 04:43:44;;;;;;;5.27;2.73;;;9.40;99.90;;;;;;5090662;28;38544;-78
2021/10/13 04:46:10;;;;;;;6.60;2.53;;;9.40;99.90;;;;;;5068678;28;38344;-78
2021/10/13 04:48:36;;;;;;;5.60;2.63;;;9.40;99.90;;;;;;5075840;28;36696;-79
2021/10/13 04:51:02;;;;;;;11.57;3.80;;;9.30;99.90;;;;;;5087644;28;36919;-78
2021/10/13 04:53:29;;;;;;;5.00;2.60;;;9.30;99.90;;;;;;5090728;28;39058;-78
2021/10/13 04:55:55;;;;;;;4.60;2.93;;;9.30;99.90;;;;;;5090045;28;38723;-79
2021/10/13 04:58:21;;;;;;;6.87;2.93;;;9.20;99.90;;;;;;5068410;28;38385;-78
2021/10/13 05:00:47;;;;;;;5.40;3.03;;;9.20;99.90;;;;;;5094589;28;38197;-78
2021/10/13 05:03:13;;;;;;;13.33;3.77;;;9.10;99.90;;;;;;5092330;28;39569;-78
2021/10/13 05:05:40;;;;;;;7.87;4.00;;;9.00;99.90;;;;;;5087830;28;38821;-79
2021/10/13 05:08:07;;;;;;;8.90;3.63;;;8.90;99.90;;;;;;5096667;27;38854;-79
2021/10/13 05:10:35;;;;;;;8.43;3.30;;;8.90;99.90;;;;;;5079479;28;38699;-78
2021/10/13 05:13:01;;;;;;;8.77;4.50;;;8.80;99.90;;;;;;5090193;28;39512;-79
2021/10/13 05:15:27;;;;;;;6.93;3.27;;;8.80;99.90;;;;;;5081841;28;38918;-78
2021/10/13 05:17:53;;;;;;;9.27;4.43;;;8.70;99.90;;;;;;5079888;28;37248;-77
2021/10/13 05:20:19;;;;;;;8.20;3.80;;;8.80;99.90;;;;;;5069561;28;38177;-77
2021/10/13 05:22:45;;;;;;;4.57;2.90;;;8.70;99.90;;;;;;5071773;28;38338;-77
2021/10/13 05:25:12;;;;;;;6.30;3.17;;;8.70;99.90;;;;;;5073599;28;39058;-76
2021/10/13 05:27:38;;;;;;;9.60;4.43;;;8.80;99.90;;;;;;5098704;28;37880;-79
2021/10/13 05:30:04;;;;;;;5.70;3.73;;;8.80;99.90;;;;;;5074448;28;39062;-78
2021/10/13 05:32:30;;;;;;;7.30;4.23;;;8.90;99.90;;;;;;5094670;28;38102;-79
2021/10/13 05:34:56;;;;;;;6.40;3.63;;;8.90;99.90;;;;;;5093355;28;39156;-76
2021/10/13 05:37:23;;;;;;;8.17;3.50;;;9.00;99.90;;;;;;5077154;28;37387;-77
2021/10/13 05:39:49;;;;;;;5.33;2.40;;;9.10;99.90;;;;;;5074268;28;38622;-77
2021/10/13 05:42:15;;;;;;;6.80;2.90;;;9.20;99.90;;;;;;5078717;28;40518;-77
2021/10/13 05:44:42;;;;;;;9.57;3.37;;;9.40;99.90;;;;;;5099545;28;38517;-77
2021/10/13 05:47:08;;;;;;;7.70;3.23;;;9.50;99.90;;;;;;5068135;28;39831;-79
2021/10/13 05:49:36;;;;;;;8.53;2.90;;;9.50;99.90;;;;;;5071638;28;38627;-78
2021/10/13 05:52:03;;;;;;;5.33;2.70;;;9.60;99.90;;;;;;5070485;28;39660;-77
2021/10/13 05:54:29;;;;;;;8.90;4.17;;;9.60;99.90;;;;;;5092529;28;38821;-78
2021/10/13 05:56:55;;;;;;;6.90;3.40;;;9.60;99.90;;;;;;5077489;28;40180;-78
2021/10/13 05:59:22;;;;;;;5.30;3.00;;;9.60;99.90;;;;;;5077249;28;35972;-78
2021/10/13 06:01:51;;;;;;;6.03;2.93;;;9.60;99.90;;;;;;5075132;28;39287;-78
2021/10/13 06:04:17;;;;;;;7.33;2.97;;;9.60;99.90;;;;;;5070759;28;39478;-78
2021/10/13 06:06:43;;;;;;;7.50;2.63;;;9.60;99.90;;;;;;5090857;28;38721;-78
2021/10/13 06:09:09;;;;;;;12.37;3.93;;;9.60;99.90;;;;;;5093801;28;37981;-78
2021/10/13 06:11:35;;;;;;;10.13;3.60;;;9.60;99.90;;;;;;5068607;28;39399;-79
2021/10/13 06:14:01;;;;;;;5.37;2.73;;;9.60;99.90;;;;;;5072474;28;38836;-79
2021/10/13 06:16:27;;;;;;;5.53;2.60;;;9.70;99.90;;;;;;5095240;28;48436;-79
2021/10/13 06:18:53;;;;;;;7.72;4.00;;;9.60;99.90;;;;;;5070819;28;38966;-79
2021/10/13 06:21:21;;;;;;;4.57;2.87;;;9.70;99.90;;;;;;5095957;28;38031;-78
2021/10/13 06:23:47;;;;;;;7.80;4.30;;;9.80;99.90;;;;;;5087924;28;38959;-78
2021/10/13 06:26:14;;;;;;;6.23;3.23;;;9.80;99.90;;;;;;5072968;28;38154;-79
2021/10/13 06:28:40;;;;;;;8.90;4.10;;;9.80;99.90;;;;;;5103064;28;38476;-78
2021/10/13 06:31:06;;;;;;;5.78;3.17;;;9.90;99.90;;;;;;5078227;28;40583;-79
2021/10/13 06:33:33;;;;;;;9.10;3.15;;;9.90;99.90;;;;;;5094045;28;37967;-79
2021/10/13 06:36:00;;;;;;;10.33;4.00;;;9.90;99.90;;;;;;5075045;28;40047;-78
2021/10/13 06:38:26;;;;;;;5.18;3.10;;;10.00;99.90;;;;;;5101624;28;37196;-79
2021/10/13 06:40:52;;;;;;;10.77;5.33;;;10.00;99.90;;;;;;5080042;28;41958;-78
2021/10/13 06:43:18;;;;;;;11.67;5.30;;;10.00;99.90;;;;;;5089845;28;39305;-78
2021/10/13 06:45:44;;;;;;;9.95;5.47;;;10.10;99.90;;;;;;5067279;28;38237;-78
2021/10/13 06:48:10;;;;;;;12.83;4.37;;;10.20;99.90;;;;;;5101977;28;37358;-78
2021/10/13 06:50:36;;;;;;;14.93;5.73;;;10.20;99.90;;;;;;5066722;28;41161;-78
2021/10/13 06:53:04;;;;;;;9.32;3.50;;;10.30;99.90;;;;;;5103867;28;38314;-78
2021/10/13 06:55:30;;;;;;;7.77;4.97;;;10.30;99.90;;;;;;5086263;28;38692;-78
2021/10/13 06:57:56;;;;;;;6.28;4.05;;;10.40;99.90;;;;;;5083171;28;38003;-78
2021/10/13 07:00:23;;;;;;;13.57;5.60;;;10.40;99.90;;;;;;5073728;28;39626;-78
2021/10/13 07:02:49;;;;;;;7.90;4.35;;;10.50;99.90;;;;;;5086356;28;37289;-78
2021/10/13 07:05:16;;;;;;;8.93;3.55;;;10.60;99.90;;;;;;5102162;28;37793;-79
2021/10/13 07:07:45;;;;;;;8.02;3.15;;;10.60;99.90;;;;;;5098651;28;37939;-78
2021/10/13 07:10:12;;;;;;;8.18;3.60;;;10.60;99.90;;;;;;5071063;28;41055;-78
2021/10/13 07:12:38;;;;;;;6.72;2.83;;;10.70;99.90;;;;;;5106816;28;38453;-78
2021/10/13 07:15:05;;;;;;;8.93;2.83;;;10.70;99.90;;;;;;5080852;28;39266;-78
2021/10/13 07:17:31;;;;;;;13.82;3.28;;;10.80;99.90;;;;;;5067997;28;47341;-78
2021/10/13 07:19:59;;;;;;;6.22;2.20;;;10.90;99.90;;;;;;5086852;28;38536;-78
2021/10/13 07:22:26;;;;;;;9.52;3.10;;;11.10;99.90;;;;;;5101424;27;38694;-78
2021/10/13 07:24:52;;;;;;;7.22;3.13;;;11.20;99.90;;;;;;5094779;28;37784;-78
2021/10/13 07:27:19;;;;;;;7.68;2.92;;;11.30;99.90;;;;;;5091903;28;37944;-78
2021/10/13 07:29:46;;;;;;;9.85;3.47;;;11.40;99.90;;;;;;5091565;28;39777;-76
2021/10/13 07:32:12;;;;;;;6.47;3.72;;;11.50;99.90;;;;;;5078146;28;39031;-78
2021/10/13 07:34:38;;;;;;;9.25;3.95;;;11.60;99.90;;;;;;5105107;28;38457;-79
2021/10/13 07:37:04;;;;;;;6.95;3.63;;;11.60;99.90;;;;;;5094182;28;37583;-77
2021/10/13 07:39:31;;;;;;;8.25;3.40;;;11.70;99.90;;;;;;5070199;28;37858;-77
2021/10/13 07:41:58;;;;;;;5.03;2.00;;;11.90;99.90;;;;;;5089530;28;39808;-77
2021/10/13 07:44:24;;;;;;;7.97;3.55;;;11.90;99.90;;;;;;5071130;28;36987;-76
2021/10/13 07:46:50;;;;;;;8.13;3.38;;;11.90;99.90;;;;;;5100650;28;37205;-77
2021/10/13 07:49:16;;;;;;;10.73;3.83;;;12.00;99.90;;;;;;5073727;28;37571;-77
2021/10/13 07:51:42;;;;;;;10.27;3.33;;;12.00;99.90;;;;;;5071074;28;39002;-77
2021/10/13 07:54:08;;;;;;;11.80;4.22;;;11.90;99.90;;;;;;5090771;28;38980;-76
2021/10/13 07:56:34;;;;;;;12.02;3.60;;;12.10;99.90;;;;;;5088946;28;37902;-76
2021/10/13 07:59:00;;;;;;;10.82;4.50;;;12.20;99.90;;;;;;5070939;28;39088;-76
2021/10/13 08:01:26;;;;;;;9.52;3.17;;;12.40;99.90;;;;;;5074697;28;38082;-77
2021/10/13 08:03:55;;;;;;;5.95;3.47;;;12.40;99.90;;;;;;5110809;28;37912;-76
2021/10/13 08:06:21;;;;;;;8.45;3.17;;;12.60;99.90;;;;;;5079652;28;36428;-77
2021/10/13 08:08:47;;;;;;;10.48;3.30;;;12.90;99.90;;;;;;5084822;28;39296;-77
2021/10/13 08:11:13;;;;;;;16.50;4.97;;;13.00;99.90;;;;;;5108990;28;38937;-77
2021/10/13 08:13:40;;;;;;;6.03;2.05;;;12.70;99.90;;;;;;5090486;28;38045;-77
2021/10/13 08:16:06;;;;;;;5.00;2.40;;;12.50;99.90;;;;;;5092531;28;38126;-77
2021/10/13 08:18:32;;;;;;;7.82;2.13;;;12.60;99.90;;;;;;5088618;28;38448;-77
2021/10/13 08:20:59;;;;;;;8.93;2.35;;;12.60;99.90;;;;;;5087684;28;38621;-77
2021/10/13 08:23:25;;;;;;;8.50;2.45;;;12.80;99.90;;;;;;5108168;28;38335;-77
2021/10/13 08:25:55;;;;;;;8.85;2.50;;;13.00;99.90;;;;;;5088765;28;37234;-77
2021/10/13 08:28:22;;;;;;;8.80;2.70;;;13.10;99.90;;;;;;5073415;28;37844;-77
2021/10/13 08:30:48;;;;;;;5.57;1.90;;;13.30;99.90;;;;;;5104959;28;38860;-77
2021/10/13 08:33:14;;;;;;;5.07;1.92;;;13.40;99.90;;;;;;5074314;28;39076;-77
2021/10/13 08:35:40;;;;;;;6.65;1.65;;;13.50;99.90;;;;;;5103234;28;37502;-77
2021/10/13 08:38:06;;;;;;;9.27;2.13;;;13.70;99.90;;;;;;5073830;28;40106;-77
2021/10/13 08:40:32;;;;;;;7.72;2.13;;;13.80;99.90;;;;;;5098503;28;38557;-77
2021/10/13 08:43:00;;;;;;;3.72;1.42;;;13.80;99.90;;;;;;5105266;28;38019;-77
2021/10/13 08:45:29;;;;;;;4.90;1.60;;;13.60;99.90;;;;;;5072016;28;37944;-77
2021/10/13 08:47:56;;;;;;;9.55;1.90;;;13.70;99.90;;;;;;5102906;28;39598;-77
2021/10/13 08:50:24;;;;;;;2.88;1.23;;;13.80;99.90;;;;;;5087512;28;39567;-77
2021/10/13 08:53:01;;;;;;;4.63;1.70;;;13.80;99.90;;;;;;5103335;28;39140;-77
2021/10/13 08:55:28;;;;;;;7.45;1.90;;;13.90;99.90;;;;;;5105022;28;49415;-76
2021/10/13 08:58:12;;;;;;;8.75;1.92;;;13.80;99.90;;;;;;5069955;28;40438;-77
2021/10/13 09:00:40;;;;;;;4.95;1.95;;;13.70;99.90;;;;;;5087482;28;48607;-77
2021/10/13 09:03:06;;;;;;;5.22;1.50;;;13.80;99.90;;;;;;5087137;28;38305;-77
2021/10/13 09:05:32;;;;;;;4.55;1.67;;;13.80;99.90;;;;;;5101611;28;37261;-77
2021/10/13 09:07:59;;;;;;;8.25;1.60;;;13.80;99.90;;;;;;5106466;28;39400;-77
2021/10/13 09:10:34;;;;;;;4.63;1.27;;;13.70;99.90;;;;;;5067556;28;38421;-77
2021/10/13 09:13:10;;;;;;;11.45;1.50;;;13.50;99.90;;;;;;5098252;28;38182;-77
2021/10/13 09:15:36;;;;;;;5.07;1.17;;;13.60;99.90;;;;;;5087153;28;46848;-77
2021/10/13 09:18:04;;;;;;;3.45;1.42;;;13.60;99.90;;;;;;5089371;28;39554;-77
2021/10/13 09:20:33;;;;;;;3.50;1.08;;;13.70;99.90;;;;;;5082185;28;38804;-77
2021/10/13 09:23:08;;;;;;;4.38;1.25;;;13.70;99.90;;;;;;5090236;28;40110;-77
2021/10/13 09:25:36;;;;;;;6.57;1.70;;;13.80;99.90;;;;;;5084834;28;47414;-77
2021/10/13 09:28:04;;;;;;;5.40;1.42;;;13.70;99.90;;;;;;5083576;28;39784;-77
2021/10/13 09:30:40;;;;;;;2.60;1.00;;;13.70;99.90;;;;;;5069055;28;38620;-77
2021/10/13 09:33:18;;;;;;;5.35;1.05;;;13.80;99.90;;;;;;5068580;28;39438;-77
2021/10/13 09:35:50;;;;;;;2.88;1.13;;;13.90;99.90;;;;;;5088948;28;38288;-77
2021/10/13 09:38:24;;;;;;;5.00;1.10;;;13.90;99.90;;;;;;5074694;28;39889;-77
2021/10/13 09:40:58;;;;;;;7.95;1.48;;;14.10;99.90;;;;;;5079253;28;40635;-77
2021/10/13 09:43:29;;;;;;;4.95;1.10;;;14.20;99.90;;;;;;5095820;28;38140;-77
2021/10/13 09:46:10;;;;;;;3.25;1.25;;;14.30;99.90;;;;;;5066926;28;38505;-77
2021/10/13 09:48:43;;;;;;;6.80;1.27;;;14.40;99.90;;;;;;5091978;28;48516;-77
2021/10/13 09:51:27;;;;;;;7.18;1.23;;;14.40;99.90;;;;;;5072088;28;38748;-77
2021/10/13 09:53:54;;;;;;;3.83;0.82;;;14.50;99.90;;;;;;5078877;28;39375;-77
2021/10/13 09:56:34;;;;;;;4.22;1.10;;;14.40;99.90;;;;;;5067297;28;37928;-77
2021/10/13 09:59:15;;;;;;;3.95;0.63;;;14.40;99.90;;;;;;5071125;28;40601;-77
2021/10/13 10:02:01;;;;;;;3.17;0.73;;;14.40;99.90;;;;;;5100609;28;49049;-77
2021/10/13 10:04:29;;;;;;;3.60;0.70;;;14.40;99.90;;;;;;5101808;28;38288;-77
2021/10/13 10:06:57;;;;;;;5.60;0.93;;;14.40;99.90;;;;;;5087350;28;37882;-77
2021/10/13 10:09:26;;;;;;;4.38;0.80;;;14.40;99.90;;;;;;5086943;28;38856;-77
2021/10/13 10:12:07;;;;;;;1.63;0.50;;;14.30;99.90;;;;;;5074642;28;38826;-77
2021/10/13 10:14:33;;;;;;;8.85;0.60;;;14.50;99.90;;;;;;5079437;28;46901;-77
2021/10/13 10:17:00;;;;;;;7.07;0.80;;;14.60;99.90;;;;;;5081953;28;37727;-77
2021/10/13 10:19:29;;;;;;;6.28;0.90;;;14.60;99.90;;;;;;5081710;28;40615;-77
2021/10/13 10:22:07;;;;;;;5.45;1.25;;;14.70;99.90;;;;;;5085475;28;39000;-77
2021/10/13 10:24:35;;;;;;;3.85;0.65;;;14.80;99.90;;;;;;5069129;28;47340;-77
2021/10/13 10:27:19;;;;;;;4.22;1.10;;;15.00;99.90;;;;;;5089034;28;37994;-77
2021/10/13 10:29:47;;;;;;;3.22;0.60;;;15.20;99.90;;;;;;5087314;28;47159;-77
2021/10/13 10:32:19;;;;;;;8.02;1.40;;;15.20;99.90;;;;;;5098778;28;38348;-77
2021/10/13 10:35:04;;;;;;;5.25;0.57;;;15.20;99.90;;;;;;5079662;28;37274;-77
2021/10/13 10:37:53;;;;;;;4.78;1.27;;;15.10;99.90;;;;;;5070858;28;46968;-78
2021/10/13 10:40:26;;;;;;;2.88;0.55;;;15.10;99.90;;;;;;5092048;28;39489;-77
2021/10/13 10:42:57;;;;;;;6.05;0.93;;;15.00;99.90;;;;;;5074030;28;38878;-77
2021/10/13 10:45:33;;;;;;;2.05;0.57;;;14.90;99.90;;;;;;5066167;27;37877;-77
2021/10/13 10:47:59;;;;;;;3.42;0.63;;;14.80;99.90;;;;;;5067176;28;37939;-77
2021/10/13 10:50:39;;;;;;;4.22;0.80;;;14.80;99.90;;;;;;5103434;28;38728;-77
2021/10/13 10:53:31;;;;;;;2.65;0.65;;;14.80;99.90;;;;;;5088090;28;38613;-77
2021/10/13 10:56:17;;;;;;;4.50;1.08;;;14.80;99.90;;;;;;5076025;28;38740;-77
2021/10/13 10:59:11;;;;;;;1.58;0.57;;;14.80;99.90;;;;;;5089849;28;47436;-77
2021/10/13 11:01:38;;;;;;;5.18;0.90;;;14.70;99.90;;;;;;5085470;28;47143;-77
2021/10/13 11:04:06;;;;;;;2.03;0.65;;;14.90;99.90;;;;;;5089041;28;39632;-77
2021/10/13 11:06:36;;;;;;;4.68;0.70;;;15.00;99.90;;;;;;5090522;28;38221;-77
2021/10/13 11:09:10;;;;;;;5.50;1.02;;;15.00;99.90;;;;;;5089508;28;36782;-77
2021/10/13 11:11:47;;;;;;;3.38;0.90;;;15.10;99.90;;;;;;5088846;28;38614;-77
2021/10/13 11:14:16;;;;;;;3.67;0.80;;;15.00;99.90;;;;;;5096098;28;40422;-77
2021/10/13 11:16:54;;;;;;;5.65;0.88;;;15.00;99.90;;;;;;5105372;28;39065;-77
2021/10/13 11:19:24;;;;;;;4.95;1.05;;;14.90;99.90;;;;;;5090558;28;38138;-77
2021/10/13 11:22:03;;;;;;;8.85;1.02;;;14.80;99.90;;;;;;5090951;28;38613;-77
2021/10/13 11:24:31;;;;;;;4.47;1.00;;;14.70;99.90;;;;;;5089336;28;47116;-77
2021/10/13 11:26:57;;;;;;;5.47;0.70;;;14.60;99.90;;;;;;5090211;28;39008;-77
2021/10/13 11:29:29;;;;;;;4.70;0.63;;;14.50;99.90;;;;;;5108088;28;37088;-77
2021/10/13 11:32:09;;;;;;;;;;;14.70;99.90;;;;;;5099681;28;39562;-78
2021/10/13 11:34:36;;;;;;;7.32;1.05;;;15.10;99.90;;;;;;5084658;28;47439;-77
2021/10/13 11:37:03;;;;;;;3.10;0.55;;;15.40;99.90;;;;;;5108629;28;37991;-76
2021/10/13 11:39:35;;;;;;;2.38;0.57;;;15.70;99.90;;;;;;5107743;28;38210;-77
2021/10/13 11:42:02;;;;;;;4.15;0.77;;;15.90;99.90;;;;;;5110359;28;39042;-77
2021/10/13 11:44:29;;;;;;;5.47;0.80;;;16.00;99.90;;;;;;5108231;28;48519;-77
2021/10/13 11:47:06;;;;;;;3.13;0.60;;;16.10;99.90;;;;;;5077737;28;38606;-78
2021/10/13 11:49:52;;;;;;;7.00;0.80;;;16.00;99.90;;;;;;5081384;28;47430;-78
2021/10/13 11:52:18;;;;;;;2.10;0.55;;;16.10;99.90;;;;;;5108425;28;39444;-78
2021/10/13 11:54:45;;;;;;;4.95;1.05;;;16.10;99.90;;;;;;5089991;28;40335;-78
2021/10/13 11:57:14;;;;;;;1.58;0.65;;;16.20;99.90;;;;;;5089452;28;40288;-78
2021/10/13 11:59:40;;;;;;;3.75;0.85;;;16.20;99.90;;;;;;5108594;28;38247;-77
2021/10/13 12:02:10;;;;;;;2.42;0.52;;;16.00;99.90;;;;;;5089231;27;39280;-78
2021/10/13 12:04:46;;;;;;;2.75;0.50;;;16.10;99.90;;;;;;5107099;28;38051;-78
2021/10/13 12:07:17;;;;;;;3.63;0.90;;;16.20;99.90;;;;;;5078954;28;39231;-78
2021/10/13 12:09:47;;;;;;;2.92;0.73;;;16.40;99.90;;;;;;5090744;28;37885;-78
2021/10/13 12:12:14;;;;;;;3.13;0.57;;;16.50;99.90;;;;;;5106134;28;38760;-78
2021/10/13 12:14:40;;;;;;;3.28;0.50;;;16.90;99.90;;;;;;5085315;28;39997;-78
2021/10/13 12:17:25;;;;;;;3.05;0.85;;;17.10;99.90;;;;;;5093062;28;37892;-78
2021/10/13 12:19:52;;;;;;;2.53;0.65;;;17.30;99.90;;;;;;5088932;28;39960;-78
2021/10/13 12:22:18;;;;;;;5.00;1.00;;;17.60;99.90;;;;;;5082396;28;40423;-79
2021/10/13 12:24:44;;;;;;;2.40;0.60;;;17.70;99.90;;;;;;5085960;28;39850;-79
2021/10/13 12:27:10;;;;;;;1.75;0.60;;;17.70;99.90;;;;;;5098460;28;38266;-79
2021/10/13 12:29:43;;;;;;;3.88;0.70;;;17.40;99.90;;;;;;5076498;28;37432;-79
2021/10/13 12:32:20;;;;;;;2.05;0.50;;;17.10;99.90;;;;;;5094031;28;39639;-79
2021/10/13 12:34:46;;;;;;;6.13;1.05;;;16.70;99.90;;;;;;5079953;28;38693;-79
2021/10/13 12:37:13;;;;;;;4.30;0.77;;;16.50;99.90;;;;;;5108553;28;38440;-79
2021/10/13 12:39:39;;;;;;;5.70;0.82;;;16.20;99.90;;;;;;5103632;28;37996;-79
2021/10/13 12:42:11;;;;;;;2.92;0.70;;;15.90;99.90;;;;;;5089640;28;38780;-76
2021/10/13 12:44:39;;;;;;;1.02;0.45;;;15.60;99.90;;;;;;5072606;28;39339;-77
2021/10/13 12:47:05;;;;;;;2.58;0.60;;;15.40;99.90;;;;;;5089345;28;38096;-76
2021/10/13 12:49:33;;;;;;;3.55;1.00;;;15.30;99.90;;;;;;5081356;28;37959;-77
2021/10/13 12:52:04;;;;;;;2.35;0.77;;;15.60;99.90;;;;;;5088913;28;39152;-77
2021/10/13 12:54:34;;;;;;;3.42;0.90;;;15.60;99.90;;;;;;5098952;28;48839;-78
2021/10/13 12:57:01;;;;;;;5.30;1.20;;;15.60;99.90;;;;;;5088391;28;41055;-76
2021/10/13 12:59:28;;;;;;;4.32;0.90;;;15.70;99.90;;;;;;5108517;28;48414;-77
2021/10/13 13:01:55;;;;;;;3.50;0.60;;;15.70;99.90;;;;;;5088633;28;39622;-77